KMCB/MCB METAR and TAF weather

Enter ICAO airport designator
Station Type Date Time Source
KMCB METAR 2020/01/26 03:53 UTC NOAA

KMCB 260353Z AUTO 00000KT 10SM CLR 08/04 A3015 RMK AO2 SLP209 T00780044


Station Type Date Time Source
KMCB Decoded METAR 2020/01/26 03:53 UTC NOAA

MCCOMB/PIKE COUNTY AIRPORT, MS, United States (KMCB) 31-11N 90-28W 124M
Jan 25, 2020 - 10:53 PM EST / 2020.01.26 0353 UTC
Wind: Calm:0
Visibility: 10 mile(s):0
Sky conditions: clear
Temperature: 46.0 F (7.8 C)
Dew Point: 39.9 F (4.4 C)
Relative Humidity: 79%
Pressure (altimeter): 30.15 in. Hg (1020 hPa)
ob: KMCB 260353Z AUTO 00000KT 10SM CLR 08/04 A3015 RMK AO2 SLP209 T00780044
cycle: 4

Station Type Date Time Source
KMCB TAF 2020/01/25 18:42 UTC NOAA

TAF KMCB 251740Z 2518/2618 VRB03KT P6SM SKC
FM261200 VRB03KT 4SM -SHRA BR OVC035
FM261500 16005KT 4SM -SHRA BR OVC010
FM261700 15007KT P6SM -SHRA OVC008

Example: see airport list